Aviation Digital Data Service (ADDS)

Output produced by METARs form (1100 UTC 30 April 2017)
found at http://www.aviationweather.gov/adds/metars/
 
EBBE 301025Z AUTO 13014KT 9999 NCD 17/M00 Q1007 BLU
EBBR 301050Z 15014KT 110V170 CAVOK 17/02 Q1007 NOSIG
TAF EBBR 300506Z 3006/0112 13013KT CAVOK 
     PROB30 
     TEMPO 3010/3016 15015G25KT 
     BECMG 0100/0102 20008KT 
     PROB30 
     TEMPO 0101/0105 4500 -RA SHRA
       
EBCI 301050Z 16015KT CAVOK 18/M02 Q1006 TEMPO 15015G25KT
TAF EBCI 300506Z 3006/0112 12010KT CAVOK 
     PROB30 
     TEMPO 3011/3016 15015G25KT 
     BECMG 3023/0101 20008KT 
     PROB30 
     TEMPO 0100/0105 4500 -RA SHRA BKN008
       
EBCV 301049Z AUTO 14016G28KT 7000 SCT180/// 19/M01 Q1005 WHT
TAF EBCV 300841Z 3010/3019 12015KT 9999 FEW040 SCT220 
     BECMG 3017/3019 SCT070 BKN150 BY EBWM
       
EBAW 301050Z 12014KT 080V140 CAVOK 18/03 Q1006 NOSIG
TAF EBAW 300820Z 3009/3018 13012KT CAVOK 
     PROB30 
     TEMPO 3010/3016 14015G25KT
       
EBFS 301025Z 16016KT 9999 SCT220 16/M01 Q1007 BLU
TAF EBFS 300841Z 3010/3019 12015KT 9999 FEW040 SCT220 
     BECMG 3017/3019 SCT070 BKN150 BY EBWM
       
EBBL 301025Z AUTO 09010KT 9999 SCT210/// 17/02 Q1009 BLU
EBFN 301025Z 14018KT 9999 FEW030 BKN200 17/01 Q1004 BLU
TAF EBFN 300841Z 3010/3019 12015KT 9999 FEW040 SCT220 
     BECMG 3012/3014 SCT060 BKN150 
     PROB30 
     TEMPO 3016/3019 4000 -RA -SHRA SCT030 BKN050 BY EBWM
       
EBLG 301050Z 14011KT 100V180 CAVOK 18/M01 Q1008 TEMPO 15015G27KT
TAF EBLG 300506Z 3006/0112 12010KT CAVOK 
     PROB30 
     TEMPO 3011/3015 15015G25KT 
     BECMG 0101/0103 21008KT 
     TEMPO 0101/0106 BKN014
       
EBOS 301050Z 13016KT CAVOK 18/01 Q1004 TEMPO 15016G26KT
TAF EBOS 300506Z 3006/0112 12013KT CAVOK 
     BECMG 3010/3012 15015G25KT 
     BECMG 3015/3017 16009KT 
     PROB40 
     TEMPO 3020/0102 4500 -RA SHRA 
     PROB30 
     TEMPO 0100/0104 BKN012